sensor_id;sensor_type;location;lat;lon;timestamp;P1;durP1;ratioP1;P2;durP2;ratioP2
44642;SDS011;33930;-34.276;150.954;2022-12-07T00:01:28;7.45;;;1.30;;
44642;SDS011;33930;-34.276;150.954;2022-12-07T00:03:59;13.00;;;1.98;;
44642;SDS011;33930;-34.276;150.954;2022-12-07T00:06:30;11.02;;;2.42;;
44642;SDS011;33930;-34.276;150.954;2022-12-07T00:08:59;23.60;;;4.10;;
44642;SDS011;33930;-34.276;150.954;2022-12-07T00:11:27;16.23;;;3.58;;
44642;SDS011;33930;-34.276;150.954;2022-12-07T00:13:58;13.98;;;2.35;;
44642;SDS011;33930;-34.276;150.954;2022-12-07T00:16:28;20.75;;;3.10;;
44642;SDS011;33930;-34.276;150.954;2022-12-07T00:18:57;4.97;;;0.98;;
44642;SDS011;33930;-34.276;150.954;2022-12-07T00:21:25;7.63;;;1.45;;
44642;SDS011;33930;-34.276;150.954;2022-12-07T00:23:54;10.23;;;2.28;;
44642;SDS011;33930;-34.276;150.954;2022-12-07T00:26:26;10.55;;;1.92;;
44642;SDS011;33930;-34.276;150.954;2022-12-07T00:29:00;8.20;;;1.35;;
44642;SDS011;33930;-34.276;150.954;2022-12-07T00:31:30;6.53;;;1.50;;
44642;SDS011;33930;-34.276;150.954;2022-12-07T00:34:00;9.52;;;1.08;;
44642;SDS011;33930;-34.276;150.954;2022-12-07T00:36:28;22.10;;;2.67;;
44642;SDS011;33930;-34.276;150.954;2022-12-07T00:38:56;6.88;;;1.40;;
44642;SDS011;33930;-34.276;150.954;2022-12-07T00:41:28;12.67;;;2.23;;
44642;SDS011;33930;-34.276;150.954;2022-12-07T00:43:58;19.00;;;2.70;;
44642;SDS011;33930;-34.276;150.954;2022-12-07T00:46:26;20.38;;;2.58;;
44642;SDS011;33930;-34.276;150.954;2022-12-07T00:48:53;10.23;;;1.30;;
44642;SDS011;33930;-34.276;150.954;2022-12-07T00:51:22;6.70;;;1.73;;
44642;SDS011;33930;-34.276;150.954;2022-12-07T00:53:51;25.92;;;2.60;;
44642;SDS011;33930;-34.276;150.954;2022-12-07T00:56:20;12.15;;;1.65;;
44642;SDS011;33930;-34.276;150.954;2022-12-07T00:58:59;18.40;;;3.08;;
44642;SDS011;33930;-34.276;150.954;2022-12-07T01:01:28;14.55;;;1.90;;
44642;SDS011;33930;-34.276;150.954;2022-12-07T01:04:01;5.13;;;1.00;;
44642;SDS011;33930;-34.276;150.954;2022-12-07T01:06:29;7.68;;;1.65;;
44642;SDS011;33930;-34.276;150.954;2022-12-07T01:08:57;10.20;;;1.00;;
44642;SDS011;33930;-34.276;150.954;2022-12-07T01:11:26;3.22;;;0.80;;
44642;SDS011;33930;-34.276;150.954;2022-12-07T01:13:56;0.95;;;0.73;;
44642;SDS011;33930;-34.276;150.954;2022-12-07T01:16:27;3.65;;;0.80;;
44642;SDS011;33930;-34.276;150.954;2022-12-07T01:18:57;1.95;;;0.65;;
44642;SDS011;33930;-34.276;150.954;2022-12-07T01:21:26;4.22;;;0.75;;
44642;SDS011;33930;-34.276;150.954;2022-12-07T01:23:58;1.53;;;0.80;;
44642;SDS011;33930;-34.276;150.954;2022-12-07T01:26:25;10.65;;;1.40;;
44642;SDS011;33930;-34.276;150.954;2022-12-07T01:28:53;8.25;;;1.40;;
44642;SDS011;33930;-34.276;150.954;2022-12-07T01:31:21;3.97;;;1.00;;
44642;SDS011;33930;-34.276;150.954;2022-12-07T01:33:51;4.50;;;1.10;;
44642;SDS011;33930;-34.276;150.954;2022-12-07T01:36:21;5.47;;;1.35;;
44642;SDS011;33930;-34.276;150.954;2022-12-07T01:38:54;5.28;;;1.00;;
44642;SDS011;33930;-34.276;150.954;2022-12-07T01:44:12;8.65;;;0.88;;
44642;SDS011;33930;-34.276;150.954;2022-12-07T01:49:33;1.50;;;0.88;;
44642;SDS011;33930;-34.276;150.954;2022-12-07T01:54:44;8.93;;;1.33;;
44642;SDS011;33930;-34.276;150.954;2022-12-07T01:57:13;6.20;;;1.30;;
44642;SDS011;33930;-34.276;150.954;2022-12-07T01:59:43;6.28;;;1.20;;
44642;SDS011;33930;-34.276;150.954;2022-12-07T02:02:17;13.93;;;2.10;;
44642;SDS011;33930;-34.276;150.954;2022-12-07T02:04:57;11.25;;;1.83;;
44642;SDS011;33930;-34.276;150.954;2022-12-07T02:07:27;13.00;;;2.55;;
44642;SDS011;33930;-34.276;150.954;2022-12-07T02:09:55;3.70;;;1.00;;
44642;SDS011;33930;-34.276;150.954;2022-12-07T02:12:22;11.70;;;1.40;;
44642;SDS011;33930;-34.276;150.954;2022-12-07T02:14:50;8.40;;;0.82;;
44642;SDS011;33930;-34.276;150.954;2022-12-07T02:18:05;5.47;;;0.95;;
44642;SDS011;33930;-34.276;150.954;2022-12-07T02:20:21;4.75;;;1.25;;
44642;SDS011;33930;-34.276;150.954;2022-12-07T02:28:27;5.25;;;1.00;;
44642;SDS011;33930;-34.276;150.954;2022-12-07T02:31:14;2.65;;;0.77;;
44642;SDS011;33930;-34.276;150.954;2022-12-07T02:33:49;3.42;;;0.80;;
44642;SDS011;33930;-34.276;150.954;2022-12-07T02:36:22;3.53;;;1.30;;
44642;SDS011;33930;-34.276;150.954;2022-12-07T02:41:27;3.28;;;1.00;;
44642;SDS011;33930;-34.276;150.954;2022-12-07T02:44:21;13.45;;;1.40;;
44642;SDS011;33930;-34.276;150.954;2022-12-07T02:46:51;3.28;;;1.10;;
44642;SDS011;33930;-34.276;150.954;2022-12-07T02:49:40;9.27;;;0.80;;
44642;SDS011;33930;-34.276;150.954;2022-12-07T02:52:08;5.65;;;0.80;;
44642;SDS011;33930;-34.276;150.954;2022-12-07T02:54:35;14.00;;;2.60;;
44642;SDS011;33930;-34.276;150.954;2022-12-07T03:00:17;9.65;;;2.00;;
44642;SDS011;33930;-34.276;150.954;2022-12-07T03:03:06;4.95;;;0.80;;
44642;SDS011;33930;-34.276;150.954;2022-12-07T03:05:44;5.00;;;0.60;;
44642;SDS011;33930;-34.276;150.954;2022-12-07T03:08:42;3.17;;;1.13;;
44642;SDS011;33930;-34.276;150.954;2022-12-07T03:12:03;2.35;;;0.50;;
44642;SDS011;33930;-34.276;150.954;2022-12-07T03:14:58;7.00;;;0.80;;
44642;SDS011;33930;-34.276;150.954;2022-12-07T03:17:34;2.47;;;0.70;;
44642;SDS011;33930;-34.276;150.954;2022-12-07T03:20:04;3.30;;;0.47;;
44642;SDS011;33930;-34.276;150.954;2022-12-07T03:22:34;3.28;;;1.17;;
44642;SDS011;33930;-34.276;150.954;2022-12-07T03:25:06;4.72;;;0.50;;
44642;SDS011;33930;-34.276;150.954;2022-12-07T03:27:41;2.40;;;0.82;;
44642;SDS011;33930;-34.276;150.954;2022-12-07T03:30:32;1.80;;;0.73;;
44642;SDS011;33930;-34.276;150.954;2022-12-07T03:33:03;4.47;;;0.90;;
44642;SDS011;33930;-34.276;150.954;2022-12-07T03:35:35;3.83;;;1.00;;
44642;SDS011;33930;-34.276;150.954;2022-12-07T03:38:14;4.97;;;1.40;;
44642;SDS011;33930;-34.276;150.954;2022-12-07T03:43:42;1.60;;;0.55;;
44642;SDS011;33930;-34.276;150.954;2022-12-07T03:51:42;2.25;;;0.57;;
44642;SDS011;33930;-34.276;150.954;2022-12-07T03:54:15;6.15;;;1.52;;
44642;SDS011;33930;-34.276;150.954;2022-12-07T03:56:47;7.13;;;1.50;;
44642;SDS011;33930;-34.276;150.954;2022-12-07T03:59:19;4.63;;;0.70;;
44642;SDS011;33930;-34.276;150.954;2022-12-07T04:01:55;1.95;;;0.57;;
44642;SDS011;33930;-34.276;150.954;2022-12-07T04:04:27;3.40;;;1.23;;
44642;SDS011;33930;-34.276;150.954;2022-12-07T04:06:55;1.15;;;0.30;;
44642;SDS011;33930;-34.276;150.954;2022-12-07T04:09:22;4.47;;;0.73;;
44642;SDS011;33930;-34.276;150.954;2022-12-07T04:11:49;2.88;;;1.15;;
44642;SDS011;33930;-34.276;150.954;2022-12-07T04:14:17;5.70;;;0.77;;
44642;SDS011;33930;-34.276;150.954;2022-12-07T04:16:51;6.32;;;0.80;;
44642;SDS011;33930;-34.276;150.954;2022-12-07T04:19:25;3.35;;;0.90;;
44642;SDS011;33930;-34.276;150.954;2022-12-07T04:21:55;6.90;;;0.93;;
44642;SDS011;33930;-34.276;150.954;2022-12-07T04:24:23;3.58;;;0.75;;
44642;SDS011;33930;-34.276;150.954;2022-12-07T04:26:50;2.75;;;0.70;;
44642;SDS011;33930;-34.276;150.954;2022-12-07T04:29:18;5.53;;;0.60;;
44642;SDS011;33930;-34.276;150.954;2022-12-07T04:31:46;3.47;;;0.95;;
44642;SDS011;33930;-34.276;150.954;2022-12-07T04:34:13;8.15;;;0.70;;
44642;SDS011;33930;-34.276;150.954;2022-12-07T04:36:42;6.18;;;1.00;;
44642;SDS011;33930;-34.276;150.954;2022-12-07T04:39:20;9.95;;;1.17;;
44642;SDS011;33930;-34.276;150.954;2022-12-07T04:41:52;7.78;;;1.25;;
44642;SDS011;33930;-34.276;150.954;2022-12-07T04:44:20;2.15;;;0.68;;
44642;SDS011;33930;-34.276;150.954;2022-12-07T04:46:48;6.45;;;1.00;;
44642;SDS011;33930;-34.276;150.954;2022-12-07T04:49:16;7.38;;;0.98;;
44642;SDS011;33930;-34.276;150.954;2022-12-07T04:51:44;6.40;;;1.05;;
44642;SDS011;33930;-34.276;150.954;2022-12-07T04:54:13;2.97;;;1.00;;
44642;SDS011;33930;-34.276;150.954;2022-12-07T04:56:41;4.25;;;0.85;;
44642;SDS011;33930;-34.276;150.954;2022-12-07T04:59:09;4.00;;;0.80;;
44642;SDS011;33930;-34.276;150.954;2022-12-07T05:01:38;8.25;;;0.93;;
44642;SDS011;33930;-34.276;150.954;2022-12-07T05:04:06;7.15;;;1.38;;
44642;SDS011;33930;-34.276;150.954;2022-12-07T05:06:33;3.58;;;1.17;;
44642;SDS011;33930;-34.276;150.954;2022-12-07T05:09:01;7.47;;;1.48;;
44642;SDS011;33930;-34.276;150.954;2022-12-07T05:11:29;7.53;;;1.70;;
44642;SDS011;33930;-34.276;150.954;2022-12-07T05:14:10;3.67;;;0.75;;
44642;SDS011;33930;-34.276;150.954;2022-12-07T05:16:40;11.25;;;1.50;;
44642;SDS011;33930;-34.276;150.954;2022-12-07T05:19:08;6.72;;;1.40;;
44642;SDS011;33930;-34.276;150.954;2022-12-07T05:21:36;6.25;;;1.17;;
44642;SDS011;33930;-34.276;150.954;2022-12-07T05:24:05;4.97;;;1.05;;
44642;SDS011;33930;-34.276;150.954;2022-12-07T05:26:33;4.90;;;0.82;;
44642;SDS011;33930;-34.276;150.954;2022-12-07T05:29:01;6.10;;;1.30;;
44642;SDS011;33930;-34.276;150.954;2022-12-07T05:31:29;3.28;;;0.90;;
44642;SDS011;33930;-34.276;150.954;2022-12-07T05:33:56;3.55;;;1.05;;
44642;SDS011;33930;-34.276;150.954;2022-12-07T05:36:24;6.75;;;0.98;;
44642;SDS011;33930;-34.276;150.954;2022-12-07T05:38:54;5.18;;;1.20;;
44642;SDS011;33930;-34.276;150.954;2022-12-07T05:41:21;8.63;;;1.42;;
44642;SDS011;33930;-34.276;150.954;2022-12-07T05:44:08;12.05;;;1.10;;
44642;SDS011;33930;-34.276;150.954;2022-12-07T05:46:36;4.50;;;1.15;;
44642;SDS011;33930;-34.276;150.954;2022-12-07T05:49:03;8.57;;;1.08;;
44642;SDS011;33930;-34.276;150.954;2022-12-07T05:51:30;10.10;;;1.48;;
44642;SDS011;33930;-34.276;150.954;2022-12-07T05:53:57;6.43;;;1.20;;
44642;SDS011;33930;-34.276;150.954;2022-12-07T05:56:25;4.50;;;0.63;;
44642;SDS011;33930;-34.276;150.954;2022-12-07T05:58:52;4.68;;;0.73;;
44642;SDS011;33930;-34.276;150.954;2022-12-07T06:01:38;12.40;;;1.25;;
44642;SDS011;33930;-34.276;150.954;2022-12-07T06:04:05;8.98;;;1.40;;
44642;SDS011;33930;-34.276;150.954;2022-12-07T06:06:33;7.82;;;1.42;;
44642;SDS011;33930;-34.276;150.954;2022-12-07T06:09:00;5.30;;;1.20;;
44642;SDS011;33930;-34.276;150.954;2022-12-07T06:11:28;8.25;;;1.33;;
44642;SDS011;33930;-34.276;150.954;2022-12-07T06:14:13;5.03;;;1.17;;
44642;SDS011;33930;-34.276;150.954;2022-12-07T06:16:40;10.23;;;1.42;;
44642;SDS011;33930;-34.276;150.954;2022-12-07T06:19:08;4.80;;;0.73;;
44642;SDS011;33930;-34.276;150.954;2022-12-07T06:21:35;7.57;;;1.02;;
44642;SDS011;33930;-34.276;150.954;2022-12-07T06:24:02;8.57;;;0.98;;
44642;SDS011;33930;-34.276;150.954;2022-12-07T06:26:30;4.45;;;0.65;;
44642;SDS011;33930;-34.276;150.954;2022-12-07T06:28:57;5.40;;;0.70;;
44642;SDS011;33930;-34.276;150.954;2022-12-07T06:31:25;10.65;;;0.82;;
44642;SDS011;33930;-34.276;150.954;2022-12-07T06:33:56;2.90;;;0.75;;
44642;SDS011;33930;-34.276;150.954;2022-12-07T06:36:24;4.18;;;0.88;;
44642;SDS011;33930;-34.276;150.954;2022-12-07T06:38:52;4.80;;;0.60;;
44642;SDS011;33930;-34.276;150.954;2022-12-07T06:41:19;3.00;;;0.60;;
44642;SDS011;33930;-34.276;150.954;2022-12-07T06:43:47;3.42;;;0.52;;
44642;SDS011;33930;-34.276;150.954;2022-12-07T06:46:15;7.00;;;0.98;;
44642;SDS011;33930;-34.276;150.954;2022-12-07T06:48:43;4.95;;;1.10;;
44642;SDS011;33930;-34.276;150.954;2022-12-07T06:51:10;5.32;;;0.90;;
44642;SDS011;33930;-34.276;150.954;2022-12-07T06:53:37;2.65;;;0.45;;
44642;SDS011;33930;-34.276;150.954;2022-12-07T06:56:05;3.78;;;0.50;;
44642;SDS011;33930;-34.276;150.954;2022-12-07T06:58:32;1.27;;;0.50;;
44642;SDS011;33930;-34.276;150.954;2022-12-07T07:01:00;1.92;;;0.30;;
44642;SDS011;33930;-34.276;150.954;2022-12-07T07:03:27;8.63;;;1.00;;
44642;SDS011;33930;-34.276;150.954;2022-12-07T07:05:54;3.75;;;0.50;;
44642;SDS011;33930;-34.276;150.954;2022-12-07T07:08:22;3.83;;;0.40;;
44642;SDS011;33930;-34.276;150.954;2022-12-07T07:10:49;0.93;;;0.40;;
44642;SDS011;33930;-34.276;150.954;2022-12-07T07:13:16;5.07;;;0.50;;
44642;SDS011;33930;-34.276;150.954;2022-12-07T07:15:44;4.63;;;0.50;;
44642;SDS011;33930;-34.276;150.954;2022-12-07T07:18:11;3.03;;;0.43;;
44642;SDS011;33930;-34.276;150.954;2022-12-07T07:20:39;4.07;;;0.40;;
44642;SDS011;33930;-34.276;150.954;2022-12-07T07:23:06;6.38;;;0.77;;
44642;SDS011;33930;-34.276;150.954;2022-12-07T07:25:33;5.22;;;1.00;;
44642;SDS011;33930;-34.276;150.954;2022-12-07T07:28:01;1.88;;;0.52;;
44642;SDS011;33930;-34.276;150.954;2022-12-07T07:30:28;8.48;;;0.60;;
44642;SDS011;33930;-34.276;150.954;2022-12-07T07:33:02;0.98;;;0.47;;
44642;SDS011;33930;-34.276;150.954;2022-12-07T07:35:30;7.57;;;0.88;;
44642;SDS011;33930;-34.276;150.954;2022-12-07T07:37:58;4.20;;;0.50;;
44642;SDS011;33930;-34.276;150.954;2022-12-07T07:40:27;6.35;;;0.85;;
44642;SDS011;33930;-34.276;150.954;2022-12-07T07:42:55;1.00;;;0.55;;
44642;SDS011;33930;-34.276;150.954;2022-12-07T07:45:23;2.28;;;0.50;;
44642;SDS011;33930;-34.276;150.954;2022-12-07T07:47:52;2.22;;;0.20;;
44642;SDS011;33930;-34.276;150.954;2022-12-07T07:50:20;1.95;;;0.50;;
44642;SDS011;33930;-34.276;150.954;2022-12-07T07:52:48;1.30;;;0.57;;
44642;SDS011;33930;-34.276;150.954;2022-12-07T07:55:15;2.47;;;1.10;;
44642;SDS011;33930;-34.276;150.954;2022-12-07T07:57:43;6.63;;;0.73;;
44642;SDS011;33930;-34.276;150.954;2022-12-07T08:00:11;7.00;;;0.68;;
44642;SDS011;33930;-34.276;150.954;2022-12-07T08:02:41;1.90;;;0.70;;
44642;SDS011;33930;-34.276;150.954;2022-12-07T08:05:10;3.17;;;0.35;;
44642;SDS011;33930;-34.276;150.954;2022-12-07T08:07:38;1.90;;;0.40;;
44642;SDS011;33930;-34.276;150.954;2022-12-07T08:10:05;4.25;;;0.65;;
44642;SDS011;33930;-34.276;150.954;2022-12-07T08:12:36;3.88;;;0.60;;
44642;SDS011;33930;-34.276;150.954;2022-12-07T08:15:27;3.17;;;0.47;;
44642;SDS011;33930;-34.276;150.954;2022-12-07T08:17:56;2.20;;;0.60;;
44642;SDS011;33930;-34.276;150.954;2022-12-07T08:20:23;1.50;;;0.80;;
44642;SDS011;33930;-34.276;150.954;2022-12-07T08:22:51;3.70;;;0.70;;
44642;SDS011;33930;-34.276;150.954;2022-12-07T08:25:18;2.35;;;0.52;;
44642;SDS011;33930;-34.276;150.954;2022-12-07T08:27:47;4.95;;;0.50;;
44642;SDS011;33930;-34.276;150.954;2022-12-07T08:30:15;3.40;;;0.45;;
44642;SDS011;33930;-34.276;150.954;2022-12-07T08:32:46;5.10;;;0.60;;
44642;SDS011;33930;-34.276;150.954;2022-12-07T08:35:14;3.17;;;0.50;;
44642;SDS011;33930;-34.276;150.954;2022-12-07T08:37:42;1.75;;;0.35;;
44642;SDS011;33930;-34.276;150.954;2022-12-07T08:40:10;5.50;;;0.63;;
44642;SDS011;33930;-34.276;150.954;2022-12-07T08:42:42;2.53;;;0.45;;
44642;SDS011;33930;-34.276;150.954;2022-12-07T08:45:11;2.55;;;0.60;;
44642;SDS011;33930;-34.276;150.954;2022-12-07T08:47:44;5.30;;;0.43;;
44642;SDS011;33930;-34.276;150.954;2022-12-07T08:50:17;3.70;;;0.63;;
44642;SDS011;33930;-34.276;150.954;2022-12-07T08:52:48;3.95;;;0.35;;
44642;SDS011;33930;-34.276;150.954;2022-12-07T08:55:19;3.20;;;0.38;;
44642;SDS011;33930;-34.276;150.954;2022-12-07T08:57:48;2.40;;;0.30;;
44642;SDS011;33930;-34.276;150.954;2022-12-07T09:00:16;2.35;;;0.43;;
44642;SDS011;33930;-34.276;150.954;2022-12-07T09:02:44;1.45;;;0.40;;
44642;SDS011;33930;-34.276;150.954;2022-12-07T09:05:11;1.55;;;0.50;;
44642;SDS011;33930;-34.276;150.954;2022-12-07T09:07:46;2.42;;;0.65;;
44642;SDS011;33930;-34.276;150.954;2022-12-07T09:10:17;3.92;;;0.50;;
44642;SDS011;33930;-34.276;150.954;2022-12-07T09:12:44;4.22;;;0.65;;
44642;SDS011;33930;-34.276;150.954;2022-12-07T09:15:11;2.75;;;0.85;;
44642;SDS011;33930;-34.276;150.954;2022-12-07T09:17:39;2.47;;;0.57;;
44642;SDS011;33930;-34.276;150.954;2022-12-07T09:20:06;2.00;;;0.50;;
44642;SDS011;33930;-34.276;150.954;2022-12-07T09:22:34;2.45;;;0.50;;
44642;SDS011;33930;-34.276;150.954;2022-12-07T09:25:02;1.92;;;0.30;;
44642;SDS011;33930;-34.276;150.954;2022-12-07T09:27:31;5.60;;;0.60;;
44642;SDS011;33930;-34.276;150.954;2022-12-07T09:29:58;2.70;;;0.63;;
44642;SDS011;33930;-34.276;150.954;2022-12-07T09:32:26;2.50;;;0.73;;
44642;SDS011;33930;-34.276;150.954;2022-12-07T09:34:53;3.63;;;0.68;;
44642;SDS011;33930;-34.276;150.954;2022-12-07T09:37:20;5.57;;;0.60;;
44642;SDS011;33930;-34.276;150.954;2022-12-07T09:39:48;4.20;;;0.35;;
44642;SDS011;33930;-34.276;150.954;2022-12-07T09:45:01;2.05;;;0.60;;
44642;SDS011;33930;-34.276;150.954;2022-12-07T09:47:31;4.25;;;0.50;;
44642;SDS011;33930;-34.276;150.954;2022-12-07T09:50:04;6.70;;;0.50;;
44642;SDS011;33930;-34.276;150.954;2022-12-07T09:52:38;5.57;;;0.57;;
44642;SDS011;33930;-34.276;150.954;2022-12-07T09:55:10;3.63;;;0.50;;
44642;SDS011;33930;-34.276;150.954;2022-12-07T09:57:39;6.07;;;2.15;;
44642;SDS011;33930;-34.276;150.954;2022-12-07T10:00:17;3.22;;;0.55;;
44642;SDS011;33930;-34.276;150.954;2022-12-07T10:02:55;8.40;;;1.20;;
44642;SDS011;33930;-34.276;150.954;2022-12-07T10:07:54;5.07;;;1.17;;
44642;SDS011;33930;-34.276;150.954;2022-12-07T10:10:25;6.28;;;1.00;;
44642;SDS011;33930;-34.276;150.954;2022-12-07T10:18:17;2.67;;;0.60;;
44642;SDS011;33930;-34.276;150.954;2022-12-07T10:20:48;2.00;;;0.82;;
44642;SDS011;33930;-34.276;150.954;2022-12-07T10:23:25;2.75;;;0.75;;
44642;SDS011;33930;-34.276;150.954;2022-12-07T10:25:52;2.03;;;0.52;;
44642;SDS011;33930;-34.276;150.954;2022-12-07T10:28:20;2.05;;;0.50;;
44642;SDS011;33930;-34.276;150.954;2022-12-07T10:30:58;4.05;;;0.70;;
44642;SDS011;33930;-34.276;150.954;2022-12-07T10:36:01;5.18;;;0.73;;
44642;SDS011;33930;-34.276;150.954;2022-12-07T10:38:45;6.82;;;1.23;;
44642;SDS011;33930;-34.276;150.954;2022-12-07T10:41:24;3.70;;;0.70;;
44642;SDS011;33930;-34.276;150.954;2022-12-07T10:43:53;10.45;;;0.80;;
44642;SDS011;33930;-34.276;150.954;2022-12-07T10:52:18;1.35;;;0.50;;
44642;SDS011;33930;-34.276;150.954;2022-12-07T11:00:56;6.38;;;1.40;;
44642;SDS011;33930;-34.276;150.954;2022-12-07T11:24:07;4.47;;;0.70;;
44642;SDS011;33930;-34.276;150.954;2022-12-07T11:32:29;1.67;;;0.57;;
44642;SDS011;33930;-34.276;150.954;2022-12-07T11:35:20;3.83;;;0.60;;
44642;SDS011;33930;-34.276;150.954;2022-12-07T11:38:17;2.92;;;0.80;;
44642;SDS011;33930;-34.276;150.954;2022-12-07T11:40:51;2.67;;;0.57;;
44642;SDS011;33930;-34.276;150.954;2022-12-07T11:43:41;3.53;;;0.60;;
44642;SDS011;33930;-34.276;150.954;2022-12-07T11:46:17;1.48;;;0.40;;
44642;SDS011;33930;-34.276;150.954;2022-12-07T11:48:46;2.60;;;0.43;;
44642;SDS011;33930;-34.276;150.954;2022-12-07T11:51:18;1.38;;;0.43;;
44642;SDS011;33930;-34.276;150.954;2022-12-07T11:56:23;3.58;;;0.90;;
44642;SDS011;33930;-34.276;150.954;2022-12-07T12:04:34;1.02;;;0.30;;
44642;SDS011;33930;-34.276;150.954;2022-12-07T12:07:22;1.80;;;0.88;;
44642;SDS011;33930;-34.276;150.954;2022-12-07T12:09:56;5.43;;;0.80;;
44642;SDS011;33930;-34.276;150.954;2022-12-07T12:15:26;2.05;;;0.65;;
44642;SDS011;33930;-34.276;150.954;2022-12-07T12:23:24;3.63;;;0.73;;
44642;SDS011;33930;-34.276;150.954;2022-12-07T12:25:57;3.88;;;0.50;;
44642;SDS011;33930;-34.276;150.954;2022-12-07T12:28:41;5.13;;;0.55;;
44642;SDS011;33930;-34.276;150.954;2022-12-07T12:33:52;2.38;;;0.43;;
44642;SDS011;33930;-34.276;150.954;2022-12-07T12:51:44;5.68;;;0.88;;
44642;SDS011;33930;-34.276;150.954;2022-12-07T12:54:26;4.83;;;0.70;;
44642;SDS011;33930;-34.276;150.954;2022-12-07T13:05:02;1.05;;;0.25;;
44642;SDS011;33930;-34.276;150.954;2022-12-07T13:15:44;1.30;;;0.20;;
44642;SDS011;33930;-34.276;150.954;2022-12-07T13:20:55;3.55;;;0.50;;
44642;SDS011;33930;-34.276;150.954;2022-12-07T13:26:19;5.25;;;0.50;;
44642;SDS011;33930;-34.276;150.954;2022-12-07T13:28:51;0.90;;;0.10;;
44642;SDS011;33930;-34.276;150.954;2022-12-07T13:39:51;0.68;;;0.38;;
44642;SDS011;33930;-34.276;150.954;2022-12-07T13:42:30;1.40;;;0.30;;
44642;SDS011;33930;-34.276;150.954;2022-12-07T13:45:00;0.52;;;0.30;;
44642;SDS011;33930;-34.276;150.954;2022-12-07T13:47:44;0.65;;;0.20;;
44642;SDS011;33930;-34.276;150.954;2022-12-07T13:52:58;0.85;;;0.30;;
44642;SDS011;33930;-34.276;150.954;2022-12-07T13:55:27;1.23;;;0.30;;
44642;SDS011;33930;-34.276;150.954;2022-12-07T13:57:55;1.10;;;0.30;;
44642;SDS011;33930;-34.276;150.954;2022-12-07T14:00:24;2.75;;;0.40;;
44642;SDS011;33930;-34.276;150.954;2022-12-07T14:03:04;3.28;;;0.43;;
44642;SDS011;33930;-34.276;150.954;2022-12-07T14:05:41;1.65;;;0.40;;
44642;SDS011;33930;-34.276;150.954;2022-12-07T14:10:52;1.30;;;0.22;;
44642;SDS011;33930;-34.276;150.954;2022-12-07T14:13:32;3.17;;;1.33;;
44642;SDS011;33930;-34.276;150.954;2022-12-07T14:16:26;2.38;;;0.40;;
44642;SDS011;33930;-34.276;150.954;2022-12-07T14:18:55;1.95;;;0.40;;
44642;SDS011;33930;-34.276;150.954;2022-12-07T14:21:25;2.05;;;0.30;;
44642;SDS011;33930;-34.276;150.954;2022-12-07T14:26:45;3.13;;;0.30;;
44642;SDS011;33930;-34.276;150.954;2022-12-07T14:29:30;0.40;;;0.17;;
44642;SDS011;33930;-34.276;150.954;2022-12-07T14:32:09;2.05;;;0.50;;
44642;SDS011;33930;-34.276;150.954;2022-12-07T14:35:12;1.65;;;0.40;;
44642;SDS011;33930;-34.276;150.954;2022-12-07T14:37:41;1.75;;;0.40;;
44642;SDS011;33930;-34.276;150.954;2022-12-07T14:40:13;4.50;;;1.00;;
44642;SDS011;33930;-34.276;150.954;2022-12-07T14:42:47;6.35;;;0.70;;
44642;SDS011;33930;-34.276;150.954;2022-12-07T14:45:21;2.90;;;0.55;;
44642;SDS011;33930;-34.276;150.954;2022-12-07T14:47:49;3.38;;;0.40;;
44642;SDS011;33930;-34.276;150.954;2022-12-07T14:50:17;4.47;;;0.85;;
44642;SDS011;33930;-34.276;150.954;2022-12-07T14:52:48;0.90;;;0.45;;
44642;SDS011;33930;-34.276;150.954;2022-12-07T14:57:52;0.75;;;0.50;;
44642;SDS011;33930;-34.276;150.954;2022-12-07T15:00:20;2.75;;;1.08;;
44642;SDS011;33930;-34.276;150.954;2022-12-07T15:02:50;4.18;;;0.70;;
44642;SDS011;33930;-34.276;150.954;2022-12-07T15:05:18;1.63;;;0.60;;
44642;SDS011;33930;-34.276;150.954;2022-12-07T15:07:46;1.40;;;0.63;;
44642;SDS011;33930;-34.276;150.954;2022-12-07T15:10:25;2.53;;;0.55;;
44642;SDS011;33930;-34.276;150.954;2022-12-07T15:12:57;1.77;;;0.60;;
44642;SDS011;33930;-34.276;150.954;2022-12-07T15:15:44;2.08;;;0.40;;
44642;SDS011;33930;-34.276;150.954;2022-12-07T15:18:11;2.17;;;0.30;;
44642;SDS011;33930;-34.276;150.954;2022-12-07T15:20:39;3.85;;;0.50;;
44642;SDS011;33930;-34.276;150.954;2022-12-07T15:23:07;2.47;;;0.40;;
44642;SDS011;33930;-34.276;150.954;2022-12-07T15:25:34;1.67;;;0.65;;
44642;SDS011;33930;-34.276;150.954;2022-12-07T15:28:01;2.97;;;0.65;;
44642;SDS011;33930;-34.276;150.954;2022-12-07T15:30:29;4.78;;;0.90;;
44642;SDS011;33930;-34.276;150.954;2022-12-07T15:32:56;3.03;;;0.77;;
44642;SDS011;33930;-34.276;150.954;2022-12-07T15:35:23;6.30;;;0.68;;
44642;SDS011;33930;-34.276;150.954;2022-12-07T15:37:51;6.03;;;1.60;;
44642;SDS011;33930;-34.276;150.954;2022-12-07T15:40:18;2.92;;;0.65;;
44642;SDS011;33930;-34.276;150.954;2022-12-07T15:42:45;3.70;;;1.00;;
44642;SDS011;33930;-34.276;150.954;2022-12-07T15:45:13;2.97;;;0.30;;
44642;SDS011;33930;-34.276;150.954;2022-12-07T15:47:41;4.22;;;0.63;;
44642;SDS011;33930;-34.276;150.954;2022-12-07T15:50:13;9.68;;;0.63;;
44642;SDS011;33930;-34.276;150.954;2022-12-07T15:52:42;4.13;;;0.70;;
44642;SDS011;33930;-34.276;150.954;2022-12-07T15:55:09;2.03;;;0.32;;
44642;SDS011;33930;-34.276;150.954;2022-12-07T15:57:37;3.05;;;0.70;;
44642;SDS011;33930;-34.276;150.954;2022-12-07T16:00:05;4.68;;;0.60;;
44642;SDS011;33930;-34.276;150.954;2022-12-07T16:02:35;2.53;;;0.57;;
44642;SDS011;33930;-34.276;150.954;2022-12-07T16:05:03;3.72;;;0.40;;
44642;SDS011;33930;-34.276;150.954;2022-12-07T16:07:30;2.45;;;0.60;;
44642;SDS011;33930;-34.276;150.954;2022-12-07T16:09:57;1.05;;;0.50;;
44642;SDS011;33930;-34.276;150.954;2022-12-07T16:12:25;3.75;;;0.70;;
44642;SDS011;33930;-34.276;150.954;2022-12-07T16:14:52;6.78;;;0.75;;
44642;SDS011;33930;-34.276;150.954;2022-12-07T16:17:19;5.28;;;0.55;;
44642;SDS011;33930;-34.276;150.954;2022-12-07T16:19:47;5.78;;;0.73;;
44642;SDS011;33930;-34.276;150.954;2022-12-07T16:22:14;6.35;;;0.80;;
44642;SDS011;33930;-34.276;150.954;2022-12-07T16:24:41;1.75;;;0.57;;
44642;SDS011;33930;-34.276;150.954;2022-12-07T16:27:09;4.93;;;0.45;;
44642;SDS011;33930;-34.276;150.954;2022-12-07T16:29:36;2.35;;;0.50;;
44642;SDS011;33930;-34.276;150.954;2022-12-07T16:32:03;4.82;;;0.73;;
44642;SDS011;33930;-34.276;150.954;2022-12-07T16:34:31;2.17;;;0.70;;
44642;SDS011;33930;-34.276;150.954;2022-12-07T16:36:58;3.30;;;0.95;;
44642;SDS011;33930;-34.276;150.954;2022-12-07T16:39:25;6.18;;;1.20;;
44642;SDS011;33930;-34.276;150.954;2022-12-07T16:41:53;2.22;;;0.60;;
44642;SDS011;33930;-34.276;150.954;2022-12-07T16:44:20;0.88;;;0.47;;
44642;SDS011;33930;-34.276;150.954;2022-12-07T16:46:47;2.05;;;0.55;;
44642;SDS011;33930;-34.276;150.954;2022-12-07T16:49:15;2.70;;;1.15;;
44642;SDS011;33930;-34.276;150.954;2022-12-07T16:51:43;3.88;;;0.60;;
44642;SDS011;33930;-34.276;150.954;2022-12-07T16:54:11;0.93;;;0.50;;
44642;SDS011;33930;-34.276;150.954;2022-12-07T16:56:39;4.05;;;0.57;;
44642;SDS011;33930;-34.276;150.954;2022-12-07T16:59:07;2.70;;;0.90;;
44642;SDS011;33930;-34.276;150.954;2022-12-07T17:01:34;1.45;;;0.50;;
44642;SDS011;33930;-34.276;150.954;2022-12-07T17:04:02;1.20;;;0.30;;
44642;SDS011;33930;-34.276;150.954;2022-12-07T17:06:29;1.10;;;0.40;;